sensor_id;sensor_type;location;lat;lon;timestamp;temperature;humidity
2447;DHT22;26430;48.818;9.244;2023-03-04T00:00:37;3.30;99.90
2447;DHT22;26430;48.818;9.244;2023-03-04T00:03:08;3.30;99.90
2447;DHT22;26430;48.818;9.244;2023-03-04T00:05:36;3.30;99.90
2447;DHT22;26430;48.818;9.244;2023-03-04T00:08:02;3.30;99.90
2447;DHT22;26430;48.818;9.244;2023-03-04T00:10:27;3.30;99.90
2447;DHT22;26430;48.818;9.244;2023-03-04T00:12:53;3.30;99.90
2447;DHT22;26430;48.818;9.244;2023-03-04T00:15:19;3.20;99.90
2447;DHT22;26430;48.818;9.244;2023-03-04T00:17:44;3.10;99.90
2447;DHT22;26430;48.818;9.244;2023-03-04T00:20:11;3.20;99.90
2447;DHT22;26430;48.818;9.244;2023-03-04T00:22:37;3.20;99.90
2447;DHT22;26430;48.818;9.244;2023-03-04T00:25:03;3.20;99.90
2447;DHT22;26430;48.818;9.244;2023-03-04T00:27:29;3.20;99.90
2447;DHT22;26430;48.818;9.244;2023-03-04T00:29:55;3.20;99.90
2447;DHT22;26430;48.818;9.244;2023-03-04T00:32:21;3.10;99.90
2447;DHT22;26430;48.818;9.244;2023-03-04T00:34:46;3.10;99.90
2447;DHT22;26430;48.818;9.244;2023-03-04T00:37:12;3.10;99.90
2447;DHT22;26430;48.818;9.244;2023-03-04T00:39:37;3.10;99.90
2447;DHT22;26430;48.818;9.244;2023-03-04T00:42:03;3.10;99.90
2447;DHT22;26430;48.818;9.244;2023-03-04T00:44:29;3.00;99.90
2447;DHT22;26430;48.818;9.244;2023-03-04T00:46:54;2.90;99.90
2447;DHT22;26430;48.818;9.244;2023-03-04T00:49:20;3.00;99.90
2447;DHT22;26430;48.818;9.244;2023-03-04T00:51:46;2.90;99.90
2447;DHT22;26430;48.818;9.244;2023-03-04T00:54:12;2.80;99.90
2447;DHT22;26430;48.818;9.244;2023-03-04T00:56:37;2.90;99.90
2447;DHT22;26430;48.818;9.244;2023-03-04T00:59:03;2.80;99.90
2447;DHT22;26430;48.818;9.244;2023-03-04T01:01:28;2.80;99.90
2447;DHT22;26430;48.818;9.244;2023-03-04T01:03:54;2.70;99.90
2447;DHT22;26430;48.818;9.244;2023-03-04T01:06:20;2.70;99.90
2447;DHT22;26430;48.818;9.244;2023-03-04T01:08:45;2.60;99.90
2447;DHT22;26430;48.818;9.244;2023-03-04T01:11:11;2.60;99.90
2447;DHT22;26430;48.818;9.244;2023-03-04T01:13:37;2.60;99.90
2447;DHT22;26430;48.818;9.244;2023-03-04T01:16:03;2.50;99.90
2447;DHT22;26430;48.818;9.244;2023-03-04T01:18:29;2.60;99.90
2447;DHT22;26430;48.818;9.244;2023-03-04T01:20:55;2.50;99.90
2447;DHT22;26430;48.818;9.244;2023-03-04T01:23:21;2.50;99.90
2447;DHT22;26430;48.818;9.244;2023-03-04T01:25:47;2.50;99.90
2447;DHT22;26430;48.818;9.244;2023-03-04T01:28:12;2.40;99.90
2447;DHT22;26430;48.818;9.244;2023-03-04T01:30:38;2.40;99.90
2447;DHT22;26430;48.818;9.244;2023-03-04T01:33:04;2.40;99.90
2447;DHT22;26430;48.818;9.244;2023-03-04T01:35:29;2.20;99.90
2447;DHT22;26430;48.818;9.244;2023-03-04T01:37:55;2.30;99.90
2447;DHT22;26430;48.818;9.244;2023-03-04T01:40:21;2.20;99.90
2447;DHT22;26430;48.818;9.244;2023-03-04T01:42:46;2.30;99.90
2447;DHT22;26430;48.818;9.244;2023-03-04T01:45:17;2.20;99.90
2447;DHT22;26430;48.818;9.244;2023-03-04T01:47:45;2.20;99.90
2447;DHT22;26430;48.818;9.244;2023-03-04T01:50:21;2.20;99.90
2447;DHT22;26430;48.818;9.244;2023-03-04T01:52:48;2.20;99.90
2447;DHT22;26430;48.818;9.244;2023-03-04T01:55:19;2.20;99.90
2447;DHT22;26430;48.818;9.244;2023-03-04T01:57:46;2.10;99.90
2447;DHT22;26430;48.818;9.244;2023-03-04T02:02:50;2.10;99.90
2447;DHT22;26430;48.818;9.244;2023-03-04T02:05:17;2.10;99.90
2447;DHT22;26430;48.818;9.244;2023-03-04T02:07:43;2.00;99.90
2447;DHT22;26430;48.818;9.244;2023-03-04T02:10:10;2.00;99.90
2447;DHT22;26430;48.818;9.244;2023-03-04T02:12:36;1.90;99.90
2447;DHT22;26430;48.818;9.244;2023-03-04T02:15:02;1.90;99.90
2447;DHT22;26430;48.818;9.244;2023-03-04T02:17:28;1.90;99.90
2447;DHT22;26430;48.818;9.244;2023-03-04T02:20:11;1.90;99.90
2447;DHT22;26430;48.818;9.244;2023-03-04T02:22:46;1.90;99.90
2447;DHT22;26430;48.818;9.244;2023-03-04T02:25:19;1.90;99.90
2447;DHT22;26430;48.818;9.244;2023-03-04T02:27:45;1.90;99.90
2447;DHT22;26430;48.818;9.244;2023-03-04T02:30:18;1.90;99.90
2447;DHT22;26430;48.818;9.244;2023-03-04T02:32:44;1.80;99.90
2447;DHT22;26430;48.818;9.244;2023-03-04T02:35:15;1.80;99.90
2447;DHT22;26430;48.818;9.244;2023-03-04T02:37:42;1.80;99.90
2447;DHT22;26430;48.818;9.244;2023-03-04T02:40:32;1.70;99.90
2447;DHT22;26430;48.818;9.244;2023-03-04T02:42:59;1.80;99.90
2447;DHT22;26430;48.818;9.244;2023-03-04T02:45:38;1.80;99.90
2447;DHT22;26430;48.818;9.244;2023-03-04T02:48:05;1.70;99.90
2447;DHT22;26430;48.818;9.244;2023-03-04T02:50:34;1.70;99.90
2447;DHT22;26430;48.818;9.244;2023-03-04T02:53:00;1.80;99.90
2447;DHT22;26430;48.818;9.244;2023-03-04T02:55:26;1.80;99.90
2447;DHT22;26430;48.818;9.244;2023-03-04T02:57:52;1.70;99.90
2447;DHT22;26430;48.818;9.244;2023-03-04T03:00:18;1.80;99.90
2447;DHT22;26430;48.818;9.244;2023-03-04T03:02:44;1.70;99.90
2447;DHT22;26430;48.818;9.244;2023-03-04T03:05:10;1.70;99.90
2447;DHT22;26430;48.818;9.244;2023-03-04T03:07:36;1.70;99.90
2447;DHT22;26430;48.818;9.244;2023-03-04T03:10:03;1.70;99.90
2447;DHT22;26430;48.818;9.244;2023-03-04T03:12:28;1.60;99.90
2447;DHT22;26430;48.818;9.244;2023-03-04T03:14:54;1.60;99.90
2447;DHT22;26430;48.818;9.244;2023-03-04T03:17:20;1.50;99.90
2447;DHT22;26430;48.818;9.244;2023-03-04T03:19:45;1.50;99.90
2447;DHT22;26430;48.818;9.244;2023-03-04T03:22:11;1.50;99.90
2447;DHT22;26430;48.818;9.244;2023-03-04T03:24:36;1.40;99.90
2447;DHT22;26430;48.818;9.244;2023-03-04T03:27:02;1.40;99.90
2447;DHT22;26430;48.818;9.244;2023-03-04T03:29:28;1.40;99.90
2447;DHT22;26430;48.818;9.244;2023-03-04T03:31:53;1.40;99.90
2447;DHT22;26430;48.818;9.244;2023-03-04T03:34:21;1.30;99.90
2447;DHT22;26430;48.818;9.244;2023-03-04T03:36:47;1.30;99.90
2447;DHT22;26430;48.818;9.244;2023-03-04T03:39:13;1.30;99.90
2447;DHT22;26430;48.818;9.244;2023-03-04T03:41:40;1.30;99.90
2447;DHT22;26430;48.818;9.244;2023-03-04T03:44:06;1.20;99.90
2447;DHT22;26430;48.818;9.244;2023-03-04T03:46:32;1.30;99.90
2447;DHT22;26430;48.818;9.244;2023-03-04T03:49:00;1.30;99.90
2447;DHT22;26430;48.818;9.244;2023-03-04T03:51:25;1.30;99.90
2447;DHT22;26430;48.818;9.244;2023-03-04T03:53:51;1.30;99.90
2447;DHT22;26430;48.818;9.244;2023-03-04T03:56:17;1.30;99.90
2447;DHT22;26430;48.818;9.244;2023-03-04T03:58:42;1.30;99.90
2447;DHT22;26430;48.818;9.244;2023-03-04T04:01:08;1.30;99.90
2447;DHT22;26430;48.818;9.244;2023-03-04T04:03:34;1.30;99.90
2447;DHT22;26430;48.818;9.244;2023-03-04T04:06:00;1.30;99.90
2447;DHT22;26430;48.818;9.244;2023-03-04T04:08:26;1.30;99.90
2447;DHT22;26430;48.818;9.244;2023-03-04T04:10:51;1.30;99.90
2447;DHT22;26430;48.818;9.244;2023-03-04T04:13:17;1.10;99.90
2447;DHT22;26430;48.818;9.244;2023-03-04T04:15:43;1.10;99.90
2447;DHT22;26430;48.818;9.244;2023-03-04T04:18:09;1.10;99.90
2447;DHT22;26430;48.818;9.244;2023-03-04T04:20:35;1.00;99.90
2447;DHT22;26430;48.818;9.244;2023-03-04T04:23:01;1.00;99.90
2447;DHT22;26430;48.818;9.244;2023-03-04T04:25:27;1.00;99.90
2447;DHT22;26430;48.818;9.244;2023-03-04T04:27:53;1.00;99.90
2447;DHT22;26430;48.818;9.244;2023-03-04T04:30:18;1.00;99.90
2447;DHT22;26430;48.818;9.244;2023-03-04T04:32:44;0.90;99.90
2447;DHT22;26430;48.818;9.244;2023-03-04T04:35:10;1.00;99.90
2447;DHT22;26430;48.818;9.244;2023-03-04T04:37:35;0.90;99.90
2447;DHT22;26430;48.818;9.244;2023-03-04T04:40:02;0.90;99.90
2447;DHT22;26430;48.818;9.244;2023-03-04T04:42:28;0.90;99.90
2447;DHT22;26430;48.818;9.244;2023-03-04T04:44:53;0.80;99.90
2447;DHT22;26430;48.818;9.244;2023-03-04T04:47:19;0.80;99.90
2447;DHT22;26430;48.818;9.244;2023-03-04T04:49:45;0.80;99.90
2447;DHT22;26430;48.818;9.244;2023-03-04T04:52:10;0.80;99.90
2447;DHT22;26430;48.818;9.244;2023-03-04T04:54:36;0.70;99.90
2447;DHT22;26430;48.818;9.244;2023-03-04T04:57:02;0.70;99.90
2447;DHT22;26430;48.818;9.244;2023-03-04T04:59:27;0.70;99.90
2447;DHT22;26430;48.818;9.244;2023-03-04T05:01:53;0.70;99.90
2447;DHT22;26430;48.818;9.244;2023-03-04T05:04:19;0.70;99.90
2447;DHT22;26430;48.818;9.244;2023-03-04T05:06:44;0.70;99.90
2447;DHT22;26430;48.818;9.244;2023-03-04T05:09:11;0.60;99.90
2447;DHT22;26430;48.818;9.244;2023-03-04T05:11:37;0.60;99.90
2447;DHT22;26430;48.818;9.244;2023-03-04T05:14:02;0.70;99.90
2447;DHT22;26430;48.818;9.244;2023-03-04T05:16:28;0.80;99.90
2447;DHT22;26430;48.818;9.244;2023-03-04T05:18:53;0.90;99.90
2447;DHT22;26430;48.818;9.244;2023-03-04T05:21:19;0.80;99.90
2447;DHT22;26430;48.818;9.244;2023-03-04T05:23:45;0.80;99.90
2447;DHT22;26430;48.818;9.244;2023-03-04T05:26:14;0.70;99.90
2447;DHT22;26430;48.818;9.244;2023-03-04T05:28:40;0.70;99.90
2447;DHT22;26430;48.818;9.244;2023-03-04T05:31:06;0.70;99.90
2447;DHT22;26430;48.818;9.244;2023-03-04T05:33:31;0.60;99.90
2447;DHT22;26430;48.818;9.244;2023-03-04T05:35:57;0.60;99.90
2447;DHT22;26430;48.818;9.244;2023-03-04T05:38:23;0.50;99.90
2447;DHT22;26430;48.818;9.244;2023-03-04T05:40:57;0.50;99.90
2447;DHT22;26430;48.818;9.244;2023-03-04T05:43:24;0.60;99.90
2447;DHT22;26430;48.818;9.244;2023-03-04T05:45:50;0.50;99.90
2447;DHT22;26430;48.818;9.244;2023-03-04T05:48:16;0.40;99.90
2447;DHT22;26430;48.818;9.244;2023-03-04T05:50:41;0.50;99.90
2447;DHT22;26430;48.818;9.244;2023-03-04T05:53:07;0.40;99.90
2447;DHT22;26430;48.818;9.244;2023-03-04T05:55:32;0.40;99.90
2447;DHT22;26430;48.818;9.244;2023-03-04T05:57:58;0.50;99.90
2447;DHT22;26430;48.818;9.244;2023-03-04T06:00:24;0.50;99.90
2447;DHT22;26430;48.818;9.244;2023-03-04T06:02:50;0.60;99.90
2447;DHT22;26430;48.818;9.244;2023-03-04T06:05:16;0.50;99.90
2447;DHT22;26430;48.818;9.244;2023-03-04T06:07:42;0.50;99.90
2447;DHT22;26430;48.818;9.244;2023-03-04T06:10:10;0.50;99.90
2447;DHT22;26430;48.818;9.244;2023-03-04T06:12:36;0.50;99.90
2447;DHT22;26430;48.818;9.244;2023-03-04T06:15:02;0.60;99.90
2447;DHT22;26430;48.818;9.244;2023-03-04T06:17:29;0.50;99.90
2447;DHT22;26430;48.818;9.244;2023-03-04T06:19:55;0.50;99.90
2447;DHT22;26430;48.818;9.244;2023-03-04T06:22:20;0.40;99.90
2447;DHT22;26430;48.818;9.244;2023-03-04T06:24:46;0.40;99.90
2447;DHT22;26430;48.818;9.244;2023-03-04T06:27:11;0.40;99.90
2447;DHT22;26430;48.818;9.244;2023-03-04T06:29:38;0.30;99.90
2447;DHT22;26430;48.818;9.244;2023-03-04T06:32:04;0.40;99.90
2447;DHT22;26430;48.818;9.244;2023-03-04T06:34:30;0.50;99.90
2447;DHT22;26430;48.818;9.244;2023-03-04T06:36:55;0.60;99.90
2447;DHT22;26430;48.818;9.244;2023-03-04T06:39:21;0.50;99.90
2447;DHT22;26430;48.818;9.244;2023-03-04T06:41:47;0.60;99.90
2447;DHT22;26430;48.818;9.244;2023-03-04T06:44:12;0.50;99.90
2447;DHT22;26430;48.818;9.244;2023-03-04T06:46:38;0.60;99.90
2447;DHT22;26430;48.818;9.244;2023-03-04T06:49:03;0.50;99.90
2447;DHT22;26430;48.818;9.244;2023-03-04T06:51:29;0.50;99.90
2447;DHT22;26430;48.818;9.244;2023-03-04T06:53:55;0.60;99.90
2447;DHT22;26430;48.818;9.244;2023-03-04T06:56:21;0.70;99.90
2447;DHT22;26430;48.818;9.244;2023-03-04T06:58:46;0.90;99.90
2447;DHT22;26430;48.818;9.244;2023-03-04T07:01:13;1.00;99.90
2447;DHT22;26430;48.818;9.244;2023-03-04T07:03:39;1.10;99.90
2447;DHT22;26430;48.818;9.244;2023-03-04T07:06:05;0.90;99.90
2447;DHT22;26430;48.818;9.244;2023-03-04T07:08:32;0.90;99.90
2447;DHT22;26430;48.818;9.244;2023-03-04T07:10:58;0.90;99.90
2447;DHT22;26430;48.818;9.244;2023-03-04T07:13:24;1.10;99.90
2447;DHT22;26430;48.818;9.244;2023-03-04T07:15:49;1.10;99.90
2447;DHT22;26430;48.818;9.244;2023-03-04T07:18:15;1.10;99.90
2447;DHT22;26430;48.818;9.244;2023-03-04T07:20:40;1.20;99.90
2447;DHT22;26430;48.818;9.244;2023-03-04T07:23:06;1.20;99.90
2447;DHT22;26430;48.818;9.244;2023-03-04T07:25:32;1.30;99.90
2447;DHT22;26430;48.818;9.244;2023-03-04T07:27:57;1.30;99.90
2447;DHT22;26430;48.818;9.244;2023-03-04T07:30:23;1.40;99.90
2447;DHT22;26430;48.818;9.244;2023-03-04T07:32:48;1.30;99.90
2447;DHT22;26430;48.818;9.244;2023-03-04T07:35:14;1.30;99.90
2447;DHT22;26430;48.818;9.244;2023-03-04T07:37:40;1.50;99.90
2447;DHT22;26430;48.818;9.244;2023-03-04T07:40:06;1.40;99.90
2447;DHT22;26430;48.818;9.244;2023-03-04T07:42:33;1.40;99.90
2447;DHT22;26430;48.818;9.244;2023-03-04T07:44:58;1.40;99.90
2447;DHT22;26430;48.818;9.244;2023-03-04T07:47:26;1.70;99.90
2447;DHT22;26430;48.818;9.244;2023-03-04T07:49:52;2.00;99.90
2447;DHT22;26430;48.818;9.244;2023-03-04T07:52:18;2.10;99.90
2447;DHT22;26430;48.818;9.244;2023-03-04T07:54:43;2.10;99.90
2447;DHT22;26430;48.818;9.244;2023-03-04T07:57:09;2.20;99.90
2447;DHT22;26430;48.818;9.244;2023-03-04T07:59:35;2.20;99.90
2447;DHT22;26430;48.818;9.244;2023-03-04T08:02:00;2.30;99.90
2447;DHT22;26430;48.818;9.244;2023-03-04T08:04:26;2.10;99.90
2447;DHT22;26430;48.818;9.244;2023-03-04T08:06:52;2.00;99.90
2447;DHT22;26430;48.818;9.244;2023-03-04T08:09:17;2.00;99.90
2447;DHT22;26430;48.818;9.244;2023-03-04T08:11:43;2.00;99.90
2447;DHT22;26430;48.818;9.244;2023-03-04T08:14:11;2.30;99.90
2447;DHT22;26430;48.818;9.244;2023-03-04T08:16:37;2.30;99.90
2447;DHT22;26430;48.818;9.244;2023-03-04T08:19:03;2.10;99.90
2447;DHT22;26430;48.818;9.244;2023-03-04T08:21:29;2.20;99.90
2447;DHT22;26430;48.818;9.244;2023-03-04T08:23:57;2.30;99.90
2447;DHT22;26430;48.818;9.244;2023-03-04T08:26:30;2.50;99.90
2447;DHT22;26430;48.818;9.244;2023-03-04T08:28:56;2.50;99.90
2447;DHT22;26430;48.818;9.244;2023-03-04T08:31:23;2.30;99.90
2447;DHT22;26430;48.818;9.244;2023-03-04T08:33:49;2.30;99.90
2447;DHT22;26430;48.818;9.244;2023-03-04T08:36:16;2.40;99.90
2447;DHT22;26430;48.818;9.244;2023-03-04T08:38:42;2.40;99.90
2447;DHT22;26430;48.818;9.244;2023-03-04T08:41:07;2.60;99.90
2447;DHT22;26430;48.818;9.244;2023-03-04T08:43:33;2.70;99.90
2447;DHT22;26430;48.818;9.244;2023-03-04T08:45:59;2.60;99.90
2447;DHT22;26430;48.818;9.244;2023-03-04T08:48:25;2.40;99.90
2447;DHT22;26430;48.818;9.244;2023-03-04T08:50:52;2.50;99.90
2447;DHT22;26430;48.818;9.244;2023-03-04T08:53:19;2.20;99.90
2447;DHT22;26430;48.818;9.244;2023-03-04T08:55:45;2.30;99.90
2447;DHT22;26430;48.818;9.244;2023-03-04T08:58:12;2.20;99.90
2447;DHT22;26430;48.818;9.244;2023-03-04T09:00:40;2.30;99.90
2447;DHT22;26430;48.818;9.244;2023-03-04T09:03:09;2.20;99.90
2447;DHT22;26430;48.818;9.244;2023-03-04T09:05:34;2.20;99.90
2447;DHT22;26430;48.818;9.244;2023-03-04T09:08:00;2.30;99.90
2447;DHT22;26430;48.818;9.244;2023-03-04T09:10:26;2.40;99.90
2447;DHT22;26430;48.818;9.244;2023-03-04T09:12:52;2.30;99.90
2447;DHT22;26430;48.818;9.244;2023-03-04T09:15:18;2.40;99.90
2447;DHT22;26430;48.818;9.244;2023-03-04T09:17:44;2.50;99.90
2447;DHT22;26430;48.818;9.244;2023-03-04T09:20:11;2.50;99.90
2447;DHT22;26430;48.818;9.244;2023-03-04T09:22:40;2.60;99.90
2447;DHT22;26430;48.818;9.244;2023-03-04T09:25:07;2.60;99.90
2447;DHT22;26430;48.818;9.244;2023-03-04T09:27:33;1.90;99.90
2447;DHT22;26430;48.818;9.244;2023-03-04T09:29:58;2.30;99.90
2447;DHT22;26430;48.818;9.244;2023-03-04T09:32:24;2.40;99.90
2447;DHT22;26430;48.818;9.244;2023-03-04T09:34:50;2.50;99.90
2447;DHT22;26430;48.818;9.244;2023-03-04T09:37:15;2.50;99.90
2447;DHT22;26430;48.818;9.244;2023-03-04T09:39:41;2.40;99.90
2447;DHT22;26430;48.818;9.244;2023-03-04T09:42:09;2.40;99.90
2447;DHT22;26430;48.818;9.244;2023-03-04T09:44:40;2.50;99.90
2447;DHT22;26430;48.818;9.244;2023-03-04T09:47:14;2.70;99.90
2447;DHT22;26430;48.818;9.244;2023-03-04T09:49:43;2.60;99.90
2447;DHT22;26430;48.818;9.244;2023-03-04T09:55:34;2.90;99.90
2447;DHT22;26430;48.818;9.244;2023-03-04T09:58:32;2.80;99.90
2447;DHT22;26430;48.818;9.244;2023-03-04T10:03:42;2.70;99.90
2447;DHT22;26430;48.818;9.244;2023-03-04T10:06:17;2.80;99.90
2447;DHT22;26430;48.818;9.244;2023-03-04T10:09:03;2.90;99.90
2447;DHT22;26430;48.818;9.244;2023-03-04T10:11:47;3.10;99.90
2447;DHT22;26430;48.818;9.244;2023-03-04T10:20:23;3.20;99.90
2447;DHT22;26430;48.818;9.244;2023-03-04T10:22:51;3.20;99.90
2447;DHT22;26430;48.818;9.244;2023-03-04T10:25:18;3.20;99.90
2447;DHT22;26430;48.818;9.244;2023-03-04T10:33:12;3.50;99.90
2447;DHT22;26430;48.818;9.244;2023-03-04T10:35:39;3.70;99.90
2447;DHT22;26430;48.818;9.244;2023-03-04T10:38:06;3.80;99.90
2447;DHT22;26430;48.818;9.244;2023-03-04T10:40:39;3.90;99.90
2447;DHT22;26430;48.818;9.244;2023-03-04T10:43:04;3.90;99.90
2447;DHT22;26430;48.818;9.244;2023-03-04T10:45:37;3.90;99.90
2447;DHT22;26430;48.818;9.244;2023-03-04T10:48:03;3.70;99.90
2447;DHT22;26430;48.818;9.244;2023-03-04T10:50:29;3.80;99.90
2447;DHT22;26430;48.818;9.244;2023-03-04T10:52:57;3.80;99.90
2447;DHT22;26430;48.818;9.244;2023-03-04T10:55:41;3.90;99.90
2447;DHT22;26430;48.818;9.244;2023-03-04T10:58:12;3.80;99.90
2447;DHT22;26430;48.818;9.244;2023-03-04T11:00:39;3.90;99.90
2447;DHT22;26430;48.818;9.244;2023-03-04T11:05:50;4.10;99.90
2447;DHT22;26430;48.818;9.244;2023-03-04T11:08:20;4.00;99.90
2447;DHT22;26430;48.818;9.244;2023-03-04T11:10:47;4.20;99.90
2447;DHT22;26430;48.818;9.244;2023-03-04T11:13:21;4.40;99.90
2447;DHT22;26430;48.818;9.244;2023-03-04T11:15:53;4.60;99.90
2447;DHT22;26430;48.818;9.244;2023-03-04T11:18:33;4.70;99.90
2447;DHT22;26430;48.818;9.244;2023-03-04T11:21:05;5.00;99.90
2447;DHT22;26430;48.818;9.244;2023-03-04T11:27:09;5.10;99.90
2447;DHT22;26430;48.818;9.244;2023-03-04T11:29:50;5.00;99.90
2447;DHT22;26430;48.818;9.244;2023-03-04T11:32:19;5.10;99.90
2447;DHT22;26430;48.818;9.244;2023-03-04T11:37:36;4.90;99.90
2447;DHT22;26430;48.818;9.244;2023-03-04T11:40:15;4.60;99.90
2447;DHT22;26430;48.818;9.244;2023-03-04T11:45:31;4.50;99.90
2447;DHT22;26430;48.818;9.244;2023-03-04T11:51:05;4.40;99.90
2447;DHT22;26430;48.818;9.244;2023-03-04T11:53:55;4.30;99.90
2447;DHT22;26430;48.818;9.244;2023-03-04T12:01:38;4.20;99.90
2447;DHT22;26430;48.818;9.244;2023-03-04T12:12:47;3.70;99.90
2447;DHT22;26430;48.818;9.244;2023-03-04T12:15:19;3.90;99.90
2447;DHT22;26430;48.818;9.244;2023-03-04T12:18:11;4.00;99.90
2447;DHT22;26430;48.818;9.244;2023-03-04T12:20:55;4.00;99.90
2447;DHT22;26430;48.818;9.244;2023-03-04T12:26:58;3.80;99.90
2447;DHT22;26430;48.818;9.244;2023-03-04T12:29:41;3.70;99.90
2447;DHT22;26430;48.818;9.244;2023-03-04T12:42:46;3.80;99.90
2447;DHT22;26430;48.818;9.244;2023-03-04T12:45:26;3.90;99.90
2447;DHT22;26430;48.818;9.244;2023-03-04T12:48:15;4.00;99.90
2447;DHT22;26430;48.818;9.244;2023-03-04T12:56:05;3.80;99.90
2447;DHT22;26430;48.818;9.244;2023-03-04T12:58:32;3.80;99.90
2447;DHT22;26430;48.818;9.244;2023-03-04T13:01:13;3.70;99.90
2447;DHT22;26430;48.818;9.244;2023-03-04T13:04:01;3.50;99.90
2447;DHT22;26430;48.818;9.244;2023-03-04T13:09:23;3.50;99.90
2447;DHT22;26430;48.818;9.244;2023-03-04T13:14:24;3.40;99.90
2447;DHT22;26430;48.818;9.244;2023-03-04T13:16:56;3.50;99.90
2447;DHT22;26430;48.818;9.244;2023-03-04T13:22:29;3.70;99.90
2447;DHT22;26430;48.818;9.244;2023-03-04T13:24:58;3.70;99.90
2447;DHT22;26430;48.818;9.244;2023-03-04T13:27:43;3.70;99.90
2447;DHT22;26430;48.818;9.244;2023-03-04T13:33:01;3.60;99.90
2447;DHT22;26430;48.818;9.244;2023-03-04T13:43:53;3.70;99.90
2447;DHT22;26430;48.818;9.244;2023-03-04T13:48:49;3.60;99.90
2447;DHT22;26430;48.818;9.244;2023-03-04T13:56:46;3.60;99.90
2447;DHT22;26430;48.818;9.244;2023-03-04T13:59:23;3.60;99.90
2447;DHT22;26430;48.818;9.244;2023-03-04T14:02:09;3.40;99.90
2447;DHT22;26430;48.818;9.244;2023-03-04T14:04:44;3.60;99.90
2447;DHT22;26430;48.818;9.244;2023-03-04T14:07:21;3.60;99.90
2447;DHT22;26430;48.818;9.244;2023-03-04T14:09:56;3.60;99.90
2447;DHT22;26430;48.818;9.244;2023-03-04T14:12:23;3.50;99.90
2447;DHT22;26430;48.818;9.244;2023-03-04T14:14:53;3.60;99.90
2447;DHT22;26430;48.818;9.244;2023-03-04T14:17:23;3.70;99.90
2447;DHT22;26430;48.818;9.244;2023-03-04T14:19:49;3.60;99.90
2447;DHT22;26430;48.818;9.244;2023-03-04T14:22:51;3.70;99.90
2447;DHT22;26430;48.818;9.244;2023-03-04T14:25:35;3.70;99.90
2447;DHT22;26430;48.818;9.244;2023-03-04T14:28:09;3.70;99.90
2447;DHT22;26430;48.818;9.244;2023-03-04T14:30:36;3.90;99.90
2447;DHT22;26430;48.818;9.244;2023-03-04T14:33:06;4.10;99.90
2447;DHT22;26430;48.818;9.244;2023-03-04T14:35:32;4.10;99.90
2447;DHT22;26430;48.818;9.244;2023-03-04T14:40:29;4.00;99.90
2447;DHT22;26430;48.818;9.244;2023-03-04T14:43:00;4.10;99.90
2447;DHT22;26430;48.818;9.244;2023-03-04T14:45:28;4.20;99.90
2447;DHT22;26430;48.818;9.244;2023-03-04T14:47:58;4.30;99.90
2447;DHT22;26430;48.818;9.244;2023-03-04T14:50:24;4.20;99.90
2447;DHT22;26430;48.818;9.244;2023-03-04T14:55:29;4.00;99.90
2447;DHT22;26430;48.818;9.244;2023-03-04T14:58:21;4.00;99.90
2447;DHT22;26430;48.818;9.244;2023-03-04T15:00:47;3.90;99.90
2447;DHT22;26430;48.818;9.244;2023-03-04T15:03:21;4.00;99.90
2447;DHT22;26430;48.818;9.244;2023-03-04T15:05:48;4.00;99.90
2447;DHT22;26430;48.818;9.244;2023-03-04T15:08:21;4.00;99.90
2447;DHT22;26430;48.818;9.244;2023-03-04T15:11:03;4.10;99.90
2447;DHT22;26430;48.818;9.244;2023-03-04T15:13:41;4.20;99.90
2447;DHT22;26430;48.818;9.244;2023-03-04T15:16:08;4.40;99.90
2447;DHT22;26430;48.818;9.244;2023-03-04T15:18:34;4.30;99.90
2447;DHT22;26430;48.818;9.244;2023-03-04T15:21:05;4.20;99.90
2447;DHT22;26430;48.818;9.244;2023-03-04T15:23:50;4.10;99.90
2447;DHT22;26430;48.818;9.244;2023-03-04T15:26:16;4.10;99.90
2447;DHT22;26430;48.818;9.244;2023-03-04T15:28:42;4.40;99.90
2447;DHT22;26430;48.818;9.244;2023-03-04T15:31:19;4.50;99.90
2447;DHT22;26430;48.818;9.244;2023-03-04T15:33:45;4.50;99.90
2447;DHT22;26430;48.818;9.244;2023-03-04T15:36:16;4.40;99.90
2447;DHT22;26430;48.818;9.244;2023-03-04T15:38:48;4.30;99.90
2447;DHT22;26430;48.818;9.244;2023-03-04T15:41:21;4.20;99.90
2447;DHT22;26430;48.818;9.244;2023-03-04T15:43:47;4.30;99.90
2447;DHT22;26430;48.818;9.244;2023-03-04T15:46:13;4.20;99.90
2447;DHT22;26430;48.818;9.244;2023-03-04T15:48:39;4.10;99.90
2447;DHT22;26430;48.818;9.244;2023-03-04T15:51:11;4.10;99.90
2447;DHT22;26430;48.818;9.244;2023-03-04T15:53:41;4.20;99.90
2447;DHT22;26430;48.818;9.244;2023-03-04T15:56:12;4.30;99.90
2447;DHT22;26430;48.818;9.244;2023-03-04T15:58:39;4.10;99.90
2447;DHT22;26430;48.818;9.244;2023-03-04T16:01:05;4.30;99.90
2447;DHT22;26430;48.818;9.244;2023-03-04T16:03:30;4.30;99.90
2447;DHT22;26430;48.818;9.244;2023-03-04T16:05:57;4.40;99.90
2447;DHT22;26430;48.818;9.244;2023-03-04T16:08:23;4.50;99.90
2447;DHT22;26430;48.818;9.244;2023-03-04T16:10:50;4.50;99.90
2447;DHT22;26430;48.818;9.244;2023-03-04T16:13:21;4.60;99.90
2447;DHT22;26430;48.818;9.244;2023-03-04T16:15:47;4.50;99.90
2447;DHT22;26430;48.818;9.244;2023-03-04T16:18:14;4.50;99.90
2447;DHT22;26430;48.818;9.244;2023-03-04T16:20:43;4.50;99.90
2447;DHT22;26430;48.818;9.244;2023-03-04T16:23:19;4.40;99.90
2447;DHT22;26430;48.818;9.244;2023-03-04T16:25:47;4.50;99.90
2447;DHT22;26430;48.818;9.244;2023-03-04T16:28:14;4.70;99.90
2447;DHT22;26430;48.818;9.244;2023-03-04T16:30:40;4.60;99.90
2447;DHT22;26430;48.818;9.244;2023-03-04T16:33:06;4.60;99.90
2447;DHT22;26430;48.818;9.244;2023-03-04T16:35:34;4.70;99.90
2447;DHT22;26430;48.818;9.244;2023-03-04T16:38:00;4.50;99.90
2447;DHT22;26430;48.818;9.244;2023-03-04T16:40:28;4.60;99.90
2447;DHT22;26430;48.818;9.244;2023-03-04T16:42:55;4.50;99.90
2447;DHT22;26430;48.818;9.244;2023-03-04T16:45:23;4.30;99.90
2447;DHT22;26430;48.818;9.244;2023-03-04T16:47:50;4.30;99.90
2447;DHT22;26430;48.818;9.244;2023-03-04T16:50:18;4.20;99.90
2447;DHT22;26430;48.818;9.244;2023-03-04T16:52:46;4.30;99.90
2447;DHT22;26430;48.818;9.244;2023-03-04T16:55:21;4.20;99.90
2447;DHT22;26430;48.818;9.244;2023-03-04T16:57:47;4.10;99.90
2447;DHT22;26430;48.818;9.244;2023-03-04T17:00:14;4.10;99.90
2447;DHT22;26430;48.818;9.244;2023-03-04T17:02:45;4.10;99.90
2447;DHT22;26430;48.818;9.244;2023-03-04T17:05:17;4.10;99.90
2447;DHT22;26430;48.818;9.244;2023-03-04T17:07:42;4.10;99.90
2447;DHT22;26430;48.818;9.244;2023-03-04T17:10:09;4.00;99.90
2447;DHT22;26430;48.818;9.244;2023-03-04T17:12:35;3.80;99.90
2447;DHT22;26430;48.818;9.244;2023-03-04T17:15:01;3.80;99.90
2447;DHT22;26430;48.818;9.244;2023-03-04T17:17:29;3.90;99.90
2447;DHT22;26430;48.818;9.244;2023-03-04T17:19:55;3.80;99.90
2447;DHT22;26430;48.818;9.244;2023-03-04T17:22:22;3.80;99.90
2447;DHT22;26430;48.818;9.244;2023-03-04T17:24:48;3.70;99.90
2447;DHT22;26430;48.818;9.244;2023-03-04T17:27:14;3.80;99.90
2447;DHT22;26430;48.818;9.244;2023-03-04T17:29:39;3.90;99.90
2447;DHT22;26430;48.818;9.244;2023-03-04T17:32:05;3.90;99.90
2447;DHT22;26430;48.818;9.244;2023-03-04T17:34:31;3.90;99.90
2447;DHT22;26430;48.818;9.244;2023-03-04T17:36:57;4.00;99.90
2447;DHT22;26430;48.818;9.244;2023-03-04T17:39:23;3.90;99.90
2447;DHT22;26430;48.818;9.244;2023-03-04T17:41:52;4.00;99.90
2447;DHT22;26430;48.818;9.244;2023-03-04T17:44:18;4.00;99.90
2447;DHT22;26430;48.818;9.244;2023-03-04T17:46:47;4.10;99.90
2447;DHT22;26430;48.818;9.244;2023-03-04T17:49:13;4.00;99.90